Terminal Aerodrome Forecast
Issued by NWS

Home | Current Version | Previous Version | Graphics & Text | Print | Product List | Glossary Off
Versions: 1 2 3 4 5 6 7 8 9 10 11 12 13

000
FTUS43 KDDC 201733
TAFGCK
TAF
KGCK 201733Z 2018/2118 24009KT P6SM SCT250
     FM211500 36013G23KT P6SM SCT100=

USA.gov is the U.S. government's official web portal to all federal, state and local government web resources and services.